createdAt,value
2022-08-03T00:00:12.333Z,23.62
2022-08-03T00:02:41.446Z,23.29
2022-08-03T00:05:11.252Z,23.04
2022-08-03T00:07:41.187Z,23.12
2022-08-03T00:10:13.714Z,23.04
2022-08-03T00:12:43.488Z,22.95
2022-08-03T00:15:16.474Z,23.04
2022-08-03T00:17:53.522Z,23.13
2022-08-03T00:20:17.185Z,23.30
2022-08-03T00:22:47.258Z,23.14
2022-08-03T00:25:16.772Z,23.01
2022-08-03T00:27:47.749Z,22.98
2022-08-03T00:30:18.091Z,22.98
2022-08-03T00:32:47.841Z,22.78
2022-08-03T00:35:36.699Z,22.78
2022-08-03T00:37:49.690Z,22.82
2022-08-03T00:40:20.703Z,22.75
2022-08-03T00:42:56.090Z,22.85
2022-08-03T00:45:28.293Z,22.76
2022-08-03T00:47:58.897Z,22.74
2022-08-03T00:50:31.005Z,22.68
2022-08-03T00:53:01.615Z,22.69
2022-08-03T00:55:31.552Z,22.44
2022-08-03T00:58:04.902Z,22.45
2022-08-03T01:00:38.754Z,22.27
2022-08-03T01:03:10.672Z,22.33
2022-08-03T01:05:55.290Z,22.34
2022-08-03T01:08:30.801Z,22.35
2022-08-03T01:11:18.220Z,22.44
2022-08-03T01:14:18.650Z,22.40
2022-08-03T01:16:55.633Z,22.41
2022-08-03T01:19:49.160Z,21.99
2022-08-03T01:22:30.359Z,21.99
2022-08-03T01:25:08.740Z,22.04
2022-08-03T01:27:53.725Z,22.14
2022-08-03T01:30:26.419Z,22.09
2022-08-03T01:33:03.694Z,22.18
2022-08-03T01:35:42.333Z,22.07
2022-08-03T01:38:15.165Z,22.22
2022-08-03T01:40:47.175Z,22.08
2022-08-03T01:43:58.919Z,22.03
2022-08-03T01:45:55.100Z,21.96
2022-08-03T01:48:25.697Z,22.10
2022-08-03T01:50:58.516Z,22.10
2022-08-03T01:53:30.432Z,22.00
2022-08-03T01:56:00.936Z,21.92
2022-08-03T01:58:32.362Z,21.99
2022-08-03T02:01:03.707Z,21.86
2022-08-03T02:03:36.551Z,22.01
2022-08-03T02:07:02.356Z,21.78
2022-08-03T02:08:44.102Z,21.78
2022-08-03T02:11:14.417Z,21.95
2022-08-03T02:13:46.627Z,21.86
2022-08-03T02:16:17.905Z,21.86
2022-08-03T02:18:49.407Z,21.93
2022-08-03T02:21:21.045Z,21.92
2022-08-03T02:23:52.519Z,21.81
2022-08-03T02:26:25.139Z,21.79
2022-08-03T02:28:57.602Z,21.88
2022-08-03T02:31:32.449Z,21.95
2022-08-03T02:34:05.414Z,21.76
2022-08-03T02:36:39.265Z,21.80
2022-08-03T02:39:11.933Z,21.61
2022-08-03T02:41:53.077Z,21.54
2022-08-03T02:44:27.227Z,21.51
2022-08-03T02:47:01.052Z,21.58
2022-08-03T02:49:40.953Z,21.53
2022-08-03T02:52:13.096Z,21.40
2022-08-03T02:54:42.225Z,21.40
2022-08-03T02:57:14.529Z,21.46
2022-08-03T02:59:45.548Z,21.37
2022-08-03T03:02:17.234Z,21.37
2022-08-03T03:04:58.869Z,21.36
2022-08-03T03:07:20.877Z,21.24
2022-08-03T03:09:52.173Z,21.34
2022-08-03T03:12:23.286Z,21.39
2022-08-03T03:14:53.076Z,21.15
2022-08-03T03:17:23.689Z,21.38
2022-08-03T03:19:54.696Z,21.35
2022-08-03T03:22:25.313Z,21.39
2022-08-03T03:24:56.523Z,21.14
2022-08-03T03:27:28.115Z,21.14
2022-08-03T03:29:59.900Z,21.37
2022-08-03T03:32:30.447Z,21.27
2022-08-03T03:35:00.868Z,21.24
2022-08-03T03:37:30.458Z,21.32
2022-08-03T03:40:00.321Z,21.13
2022-08-03T03:42:30.819Z,21.14
2022-08-03T03:45:02.337Z,21.30
2022-08-03T03:47:33.098Z,21.30
2022-08-03T03:50:07.259Z,21.12
2022-08-03T03:52:37.511Z,21.11
2022-08-03T03:55:08.365Z,21.19
2022-08-03T03:57:38.146Z,21.12
2022-08-03T04:00:10.159Z,21.14
2022-08-03T04:02:40.695Z,21.20
2022-08-03T04:05:28.223Z,21.22
2022-08-03T04:08:24.678Z,21.07
2022-08-03T04:11:29.215Z,21.05
2022-08-03T04:14:01.895Z,21.17
2022-08-03T04:16:34.380Z,21.20
2022-08-03T04:19:07.510Z,21.21
2022-08-03T04:21:40.313Z,21.15
2022-08-03T04:24:12.514Z,21.06
2022-08-03T04:26:44.121Z,20.94
2022-08-03T04:29:15.340Z,20.94
2022-08-03T04:31:46.953Z,21.04
2022-08-03T04:34:17.265Z,21.08
2022-08-03T04:36:50.222Z,21.01
2022-08-03T04:39:23.265Z,20.98
2022-08-03T04:42:07.666Z,20.93
2022-08-03T04:44:29.250Z,21.17
2022-08-03T04:47:00.540Z,21.03
2022-08-03T04:49:31.405Z,21.11
2022-08-03T04:52:01.929Z,21.15
2022-08-03T04:54:32.250Z,21.14
2022-08-03T04:57:02.018Z,21.23
2022-08-03T04:59:31.798Z,21.27
2022-08-03T05:02:01.721Z,21.24
2022-08-03T05:04:31.690Z,21.00
2022-08-03T05:07:11.736Z,21.31
2022-08-03T05:09:50.170Z,21.01
2022-08-03T05:12:07.311Z,21.01
2022-08-03T05:14:38.697Z,21.24
2022-08-03T05:17:09.412Z,21.23
2022-08-03T05:19:39.194Z,21.20
2022-08-03T05:22:10.489Z,21.27
2022-08-03T05:24:40.269Z,21.31
2022-08-03T05:27:10.710Z,21.49
2022-08-03T05:29:41.345Z,21.34
2022-08-03T05:32:12.647Z,21.48
2022-08-03T05:34:42.432Z,21.29
2022-08-03T05:37:12.768Z,21.29
2022-08-03T05:39:42.540Z,21.52
2022-08-03T05:42:12.372Z,21.52
2022-08-03T05:44:42.152Z,21.77
2022-08-03T05:47:11.917Z,21.99
2022-08-03T05:49:41.510Z,22.01
2022-08-03T05:52:14.658Z,22.12
2022-08-03T05:54:56.678Z,22.05
2022-08-03T05:57:14.875Z,21.97
2022-08-03T05:59:53.922Z,22.25
2022-08-03T06:02:16.415Z,22.30
2022-08-03T06:04:46.915Z,22.33
2022-08-03T06:07:16.694Z,22.24
2022-08-03T06:10:36.157Z,22.17
2022-08-03T06:12:18.337Z,22.38
2022-08-03T06:14:48.335Z,22.49
2022-08-03T06:17:18.102Z,22.24
2022-08-03T06:19:47.888Z,22.69
2022-08-03T06:22:17.825Z,22.80
2022-08-03T06:24:53.527Z,22.98
2022-08-03T06:27:20.405Z,23.08
2022-08-03T06:29:51.874Z,23.32
2022-08-03T06:32:22.721Z,23.56
2022-08-03T06:34:52.496Z,23.58
2022-08-03T06:37:23.138Z,23.75
2022-08-03T06:39:53.377Z,23.76
2022-08-03T06:42:23.219Z,23.79
2022-08-03T06:44:54.999Z,23.64
2022-08-03T06:47:24.781Z,23.74
2022-08-03T06:50:16.151Z,23.69
2022-08-03T06:52:37.260Z,23.95
2022-08-03T06:54:57.209Z,24.59
2022-08-03T06:57:27.183Z,24.59
2022-08-03T07:00:09.050Z,24.76
2022-08-03T07:02:30.367Z,24.72
2022-08-03T07:05:00.428Z,24.58
2022-08-03T07:07:30.271Z,24.46
2022-08-03T07:10:00.136Z,24.77
2022-08-03T07:12:32.641Z,24.85
2022-08-03T07:15:04.062Z,24.89
2022-08-03T07:17:35.475Z,25.38
2022-08-03T07:20:09.206Z,25.26
2022-08-03T07:22:38.950Z,25.50
2022-08-03T07:25:09.377Z,25.60
2022-08-03T07:27:39.373Z,25.77
2022-08-03T07:30:11.838Z,25.78
2022-08-03T07:32:49.864Z,26.12
2022-08-03T07:35:24.226Z,25.44
2022-08-03T07:37:54.124Z,25.44
2022-08-03T07:40:17.673Z,26.03
2022-08-03T07:42:47.445Z,26.08
2022-08-03T07:45:18.997Z,26.52
2022-08-03T07:47:53.486Z,26.52
2022-08-03T07:50:19.985Z,26.91
2022-08-03T07:52:51.614Z,27.38
2022-08-03T07:55:23.382Z,27.44
2022-08-03T07:58:12.183Z,26.94
2022-08-03T08:00:42.331Z,26.98
2022-08-03T08:03:13.136Z,27.42
2022-08-03T08:05:42.969Z,27.42
2022-08-03T08:08:13.742Z,27.93
2022-08-03T08:10:57.886Z,27.98
2022-08-03T08:13:14.989Z,28.03
2022-08-03T08:15:44.762Z,27.54
2022-08-03T08:18:16.140Z,27.74
2022-08-03T08:20:45.914Z,28.04
2022-08-03T08:23:42.931Z,28.07
2022-08-03T08:25:47.163Z,28.39
2022-08-03T08:28:32.936Z,28.68
2022-08-03T08:30:53.586Z,29.01
2022-08-03T08:33:24.132Z,28.96
2022-08-03T08:35:55.023Z,29.24
2022-08-03T08:38:25.065Z,29.24
2022-08-03T08:40:57.123Z,29.25
2022-08-03T08:43:26.896Z,29.04
2022-08-03T08:45:59.710Z,28.57
2022-08-03T08:48:31.893Z,28.76
2022-08-03T08:51:02.490Z,28.76
2022-08-03T08:53:35.217Z,29.00
2022-08-03T08:56:08.606Z,28.95
2022-08-03T08:58:44.102Z,28.73
2022-08-03T09:01:13.766Z,28.94
2022-08-03T09:03:43.640Z,29.22
2022-08-03T09:06:13.422Z,29.56
2022-08-03T09:08:43.331Z,29.79
2022-08-03T09:11:13.186Z,29.56
2022-08-03T09:13:43.618Z,29.87
2022-08-03T09:16:18.626Z,30.48
2022-08-03T09:18:51.026Z,30.44
2022-08-03T09:21:34.196Z,30.47
2022-08-03T09:24:02.724Z,30.40
2022-08-03T09:26:31.664Z,30.57
2022-08-03T09:29:13.153Z,30.39
2022-08-03T09:31:43.869Z,30.39
2022-08-03T09:34:16.651Z,30.72
2022-08-03T09:36:52.229Z,30.32
2022-08-03T09:39:28.630Z,30.72
2022-08-03T09:42:10.224Z,30.37
2022-08-03T09:44:42.605Z,30.50
2022-08-03T09:47:14.440Z,30.87
2022-08-03T09:49:46.272Z,30.87
2022-08-03T09:52:39.438Z,31.26
2022-08-03T09:54:53.676Z,31.19
2022-08-03T09:57:25.291Z,31.71
2022-08-03T10:00:04.449Z,31.11
2022-08-03T10:02:29.688Z,31.40
2022-08-03T10:04:59.455Z,31.42
2022-08-03T10:07:29.309Z,31.33
2022-08-03T10:10:30.090Z,31.31
2022-08-03T10:12:32.755Z,31.75
2022-08-03T10:15:03.302Z,31.65
2022-08-03T10:17:36.198Z,31.55
2022-08-03T10:20:07.575Z,32.09
2022-08-03T10:22:39.727Z,32.22
2022-08-03T10:25:12.519Z,32.80
2022-08-03T10:27:45.645Z,32.67
2022-08-03T10:30:15.741Z,32.48
2022-08-03T10:32:50.978Z,32.31
2022-08-03T10:35:23.376Z,32.48
2022-08-03T10:38:05.307Z,33.00
2022-08-03T10:40:55.819Z,33.22
2022-08-03T10:43:16.312Z,32.68
2022-08-03T10:45:48.032Z,32.34
2022-08-03T10:48:19.466Z,32.03
2022-08-03T10:50:51.488Z,32.23
2022-08-03T10:53:35.916Z,32.83
2022-08-03T10:56:44.372Z,32.83
2022-08-03T10:58:58.301Z,33.08
2022-08-03T11:01:58.645Z,33.00
2022-08-03T11:04:25.033Z,33.45
2022-08-03T11:07:18.615Z,33.29
2022-08-03T11:09:54.098Z,33.59
2022-08-03T11:12:31.425Z,33.35
2022-08-03T11:15:09.305Z,32.95
2022-08-03T11:17:46.349Z,33.75
2022-08-03T11:20:12.916Z,33.84
2022-08-03T11:22:54.337Z,33.67
2022-08-03T11:25:54.840Z,33.97
2022-08-03T11:28:14.382Z,33.98
2022-08-03T11:30:44.438Z,33.75
2022-08-03T11:33:17.259Z,33.34
2022-08-03T11:36:02.480Z,33.30
2022-08-03T11:38:32.288Z,33.99
2022-08-03T11:41:02.534Z,33.02
2022-08-03T11:43:36.730Z,33.54
2022-08-03T11:46:11.436Z,33.86
2022-08-03T11:48:43.560Z,33.44
2022-08-03T11:51:27.847Z,32.95
2022-08-03T11:53:59.629Z,33.43
2022-08-03T11:56:31.792Z,33.84
2022-08-03T11:59:20.314Z,34.22
2022-08-03T12:01:33.039Z,34.55
2022-08-03T12:04:07.264Z,34.33
2022-08-03T12:06:38.861Z,34.42
2022-08-03T12:09:21.310Z,34.89
2022-08-03T12:11:59.754Z,35.29
2022-08-03T12:14:49.277Z,34.30
2022-08-03T12:16:54.700Z,34.55
2022-08-03T12:19:24.481Z,34.16
2022-08-03T12:21:56.756Z,34.19
2022-08-03T12:24:27.438Z,34.47
2022-08-03T12:27:00.073Z,34.73
2022-08-03T12:29:30.041Z,34.73
2022-08-03T12:31:59.524Z,34.88
2022-08-03T12:34:49.680Z,34.76
2022-08-03T12:37:23.869Z,34.76
2022-08-03T12:40:05.201Z,34.75
2022-08-03T12:42:34.736Z,34.04
2022-08-03T12:45:27.819Z,33.94
2022-08-03T12:48:00.035Z,34.76
2022-08-03T12:50:32.050Z,34.89
2022-08-03T12:53:04.538Z,34.99
2022-08-03T12:55:57.855Z,34.37
2022-08-03T12:58:13.666Z,34.56
2022-08-03T13:00:42.184Z,34.54
2022-08-03T13:03:39.311Z,35.20
2022-08-03T13:05:47.088Z,34.85
2022-08-03T13:08:25.378Z,35.13
2022-08-03T13:10:55.198Z,34.72
2022-08-03T13:13:41.187Z,34.56
2022-08-03T13:16:15.786Z,35.11
2022-08-03T13:18:42.982Z,34.59
2022-08-03T13:21:17.893Z,34.57
2022-08-03T13:23:47.953Z,35.60
2022-08-03T13:26:17.726Z,35.58
2022-08-03T13:28:47.487Z,35.23
2022-08-03T13:31:17.259Z,35.13
2022-08-03T13:33:47.024Z,35.64
2022-08-03T13:36:17.362Z,36.39
2022-08-03T13:38:47.135Z,36.51
2022-08-03T13:41:16.975Z,35.94
2022-08-03T13:43:47.225Z,36.33
2022-08-03T13:46:17.577Z,36.13
2022-08-03T13:48:47.344Z,35.90
2022-08-03T13:51:22.608Z,35.81
2022-08-03T13:53:48.295Z,35.67
2022-08-03T13:56:18.116Z,35.85
2022-08-03T13:58:47.890Z,34.94
2022-08-03T14:01:29.653Z,35.38
2022-08-03T14:03:51.402Z,35.79
2022-08-03T14:06:23.618Z,34.94
2022-08-03T14:08:56.785Z,35.21
2022-08-03T14:11:25.774Z,35.27
2022-08-03T14:13:57.300Z,35.35
2022-08-03T14:16:27.010Z,35.78
2022-08-03T14:18:56.780Z,35.97
2022-08-03T14:21:27.743Z,36.43
2022-08-03T14:23:57.503Z,36.35
2022-08-03T14:26:27.661Z,36.12
2022-08-03T14:28:57.428Z,35.88
2022-08-03T14:32:11.877Z,35.68
2022-08-03T14:33:58.807Z,35.99
2022-08-03T14:36:28.641Z,36.47
2022-08-03T14:39:01.332Z,36.41
2022-08-03T14:41:29.937Z,36.39
2022-08-03T14:44:02.070Z,36.86
2022-08-03T14:46:32.079Z,36.07
2022-08-03T14:50:34.339Z,36.13
2022-08-03T14:51:33.310Z,36.55
2022-08-03T14:54:03.371Z,36.70
2022-08-03T14:56:33.154Z,36.76
2022-08-03T14:59:02.919Z,36.98
2022-08-03T15:02:04.776Z,37.26
2022-08-03T15:04:05.027Z,37.63
2022-08-03T15:06:35.133Z,37.01
2022-08-03T15:11:36.973Z,36.52
2022-08-03T15:14:09.522Z,36.66
2022-08-03T15:16:39.836Z,36.57
2022-08-03T15:20:05.564Z,35.85
2022-08-03T15:21:47.342Z,36.03
2022-08-03T15:24:12.251Z,36.21
2022-08-03T15:26:42.112Z,36.02
2022-08-03T15:30:05.159Z,36.58
2022-08-03T15:31:44.979Z,36.65
2022-08-03T15:34:14.761Z,36.65
2022-08-03T15:36:44.812Z,37.18
2022-08-03T15:39:14.921Z,37.31
2022-08-03T15:41:45.043Z,37.35
2022-08-03T15:44:14.496Z,37.41
2022-08-03T15:46:44.276Z,36.62
2022-08-03T15:49:14.206Z,36.97
2022-08-03T15:51:43.983Z,36.97
2022-08-03T15:54:13.523Z,37.67
2022-08-03T15:56:44.940Z,37.63
2022-08-03T15:59:14.407Z,37.75
2022-08-03T16:01:44.386Z,37.91
2022-08-03T16:04:14.138Z,38.05
2022-08-03T16:06:43.905Z,38.09
2022-08-03T16:09:24.358Z,37.89
2022-08-03T16:11:45.144Z,38.12
2022-08-03T16:14:32.664Z,38.12
2022-08-03T16:16:46.607Z,38.16
2022-08-03T16:19:16.639Z,37.48
2022-08-03T16:21:48.184Z,36.89
2022-08-03T16:24:25.869Z,37.71
2022-08-03T16:26:49.454Z,37.71
2022-08-03T16:29:23.140Z,38.03
2022-08-03T16:31:51.349Z,38.54
2022-08-03T16:34:21.395Z,38.41
2022-08-03T16:36:51.174Z,38.05
2022-08-03T16:39:21.007Z,37.54
2022-08-03T16:41:54.029Z,37.74
2022-08-03T16:44:22.408Z,37.22
2022-08-03T16:46:52.251Z,38.05
2022-08-03T16:49:54.876Z,37.75
2022-08-03T16:51:53.364Z,38.30
2022-08-03T16:54:23.895Z,38.03
2022-08-03T16:56:55.439Z,38.62
2022-08-03T16:59:36.377Z,38.06
2022-08-03T17:01:58.096Z,37.97
2022-08-03T17:04:29.340Z,37.60
2022-08-03T17:07:00.089Z,37.15
2022-08-03T17:09:38.252Z,36.87
2022-08-03T17:12:03.123Z,36.47
2022-08-03T17:14:33.158Z,36.51
2022-08-03T17:17:05.955Z,36.35
2022-08-03T17:19:39.944Z,36.73
2022-08-03T17:22:17.758Z,36.76
2022-08-03T17:24:50.104Z,36.57
2022-08-03T17:28:50.746Z,36.75
2022-08-03T17:29:57.196Z,36.68
2022-08-03T17:32:30.142Z,37.04
2022-08-03T17:35:00.276Z,36.73
2022-08-03T17:37:57.440Z,37.45
2022-08-03T17:40:03.759Z,37.45
2022-08-03T17:42:35.183Z,37.44
2022-08-03T17:45:08.358Z,36.93
2022-08-03T17:47:42.087Z,36.93
2022-08-03T17:50:24.322Z,37.72
2022-08-03T17:52:48.620Z,37.29
2022-08-03T17:55:56.440Z,36.87
2022-08-03T17:58:03.413Z,37.26
2022-08-03T18:00:53.186Z,37.33
2022-08-03T18:03:56.989Z,37.55
2022-08-03T18:06:12.945Z,36.41
2022-08-03T18:08:48.249Z,35.85
2022-08-03T18:11:21.920Z,35.09
2022-08-03T18:14:16.297Z,34.54
2022-08-03T18:16:51.900Z,34.28
2022-08-03T18:20:01.767Z,34.03
2022-08-03T18:22:03.548Z,33.97
2022-08-03T18:24:30.435Z,33.69
2022-08-03T18:27:04.237Z,33.68
2022-08-03T18:29:36.964Z,33.52
2022-08-03T18:32:13.667Z,33.20
2022-08-03T18:37:23.010Z,32.90
2022-08-03T18:39:52.716Z,32.97
2022-08-03T18:42:26.470Z,32.80
2022-08-03T18:44:56.343Z,32.92
2022-08-03T18:47:52.488Z,32.73
2022-08-03T18:50:30.749Z,32.59
2022-08-03T18:53:19.726Z,32.48
2022-08-03T18:56:02.670Z,32.39
2022-08-03T18:58:38.794Z,32.29
2022-08-03T19:02:00.639Z,32.29
2022-08-03T19:03:54.114Z,32.25
2022-08-03T19:06:26.442Z,32.09
2022-08-03T19:08:58.679Z,31.73
2022-08-03T19:12:13.304Z,31.67
2022-08-03T19:14:05.639Z,31.76
2022-08-03T19:16:39.533Z,31.61
2022-08-03T19:19:14.483Z,31.44
2022-08-03T19:21:46.004Z,31.21
2022-08-03T19:24:21.678Z,31.22
2022-08-03T19:26:55.408Z,31.06
2022-08-03T19:29:57.904Z,30.85
2022-08-03T19:31:59.978Z,30.94
2022-08-03T19:34:32.632Z,30.84
2022-08-03T19:37:03.336Z,30.80
2022-08-03T19:39:33.705Z,30.66
2022-08-03T19:42:12.169Z,30.57
2022-08-03T19:44:44.962Z,30.43
2022-08-03T19:47:30.005Z,30.34
2022-08-03T19:50:06.001Z,30.29
2022-08-03T19:52:35.651Z,30.44
2022-08-03T19:55:12.098Z,30.27
2022-08-03T19:57:45.866Z,30.23
2022-08-03T20:00:17.617Z,30.02
2022-08-03T20:02:50.856Z,29.75
2022-08-03T20:05:20.741Z,29.82
2022-08-03T20:07:53.497Z,29.70
2022-08-03T20:10:23.215Z,29.74
2022-08-03T20:12:54.637Z,29.66
2022-08-03T20:15:31.340Z,29.58
2022-08-03T20:17:58.616Z,29.54
2022-08-03T20:20:36.409Z,29.49
2022-08-03T20:23:10.029Z,29.55
2022-08-03T20:25:57.016Z,29.38
2022-08-03T20:28:17.326Z,29.09
2022-08-03T20:30:47.721Z,28.83
2022-08-03T20:33:18.787Z,28.83
2022-08-03T20:35:50.541Z,28.98
2022-08-03T20:38:20.437Z,28.86
2022-08-03T20:40:51.916Z,28.75
2022-08-03T20:43:23.326Z,28.72
2022-08-03T20:45:58.975Z,28.80
2022-08-03T20:48:26.272Z,28.82
2022-08-03T20:50:56.463Z,28.44
2022-08-03T20:53:59.796Z,28.56
2022-08-03T20:56:02.347Z,28.54
2022-08-03T20:58:33.504Z,28.51
2022-08-03T21:01:03.840Z,28.58
2022-08-03T21:03:40.896Z,28.44
2022-08-03T21:06:08.784Z,28.39
2022-08-03T21:08:46.906Z,28.11
2022-08-03T21:11:15.283Z,28.30
2022-08-03T21:12:58.523Z,33.11
2022-08-03T21:13:53.915Z,28.26
2022-08-03T21:16:26.959Z,27.91
2022-08-03T21:18:59.535Z,28.06
2022-08-03T21:21:32.411Z,27.91
2022-08-03T21:24:04.598Z,27.91
2022-08-03T21:26:37.213Z,27.85
2022-08-03T21:29:08.485Z,27.86
2022-08-03T21:31:40.058Z,27.66
2022-08-03T21:34:11.662Z,27.67
2022-08-03T21:36:41.511Z,27.65
2022-08-03T21:39:12.470Z,27.56
2022-08-03T21:41:42.600Z,27.75
2022-08-03T21:44:13.474Z,27.51
2022-08-03T21:46:44.881Z,27.49
2022-08-03T21:50:05.892Z,27.41
2022-08-03T21:51:48.475Z,27.29
2022-08-03T21:54:20.124Z,27.29
2022-08-03T21:56:51.906Z,27.27
2022-08-03T21:59:23.922Z,27.24
2022-08-03T22:01:55.167Z,27.40
2022-08-03T22:04:50.085Z,27.38
2022-08-03T22:06:59.324Z,27.21
2022-08-03T22:09:29.462Z,27.20
2022-08-03T22:11:59.234Z,27.08
2022-08-03T22:14:29.042Z,27.15
2022-08-03T22:16:58.883Z,27.04
2022-08-03T22:19:28.713Z,26.92
2022-08-03T22:21:59.933Z,26.91
2022-08-03T22:24:32.606Z,26.97
2022-08-03T22:27:21.409Z,26.82
2022-08-03T22:29:52.227Z,26.73
2022-08-03T22:32:22.566Z,26.81
2022-08-03T22:34:53.751Z,26.81
2022-08-03T22:37:26.635Z,26.65
2022-08-03T22:39:58.365Z,26.52
2022-08-03T22:42:28.284Z,26.57
2022-08-03T22:44:58.052Z,26.50
2022-08-03T22:47:28.461Z,26.53
2022-08-03T22:50:31.672Z,26.30
2022-08-03T22:52:31.366Z,26.30
2022-08-03T22:55:03.341Z,26.27
2022-08-03T22:57:34.709Z,26.27
2022-08-03T23:00:09.150Z,26.41
2022-08-03T23:02:40.894Z,26.16
2022-08-03T23:06:00.650Z,26.13
2022-08-03T23:07:51.490Z,26.29
2022-08-03T23:10:21.385Z,26.12
2022-08-03T23:12:51.591Z,26.02
2022-08-03T23:15:26.145Z,26.10
2022-08-03T23:17:58.598Z,26.20
2022-08-03T23:20:29.456Z,26.12
2022-08-03T23:23:00.636Z,26.19
2022-08-03T23:25:30.555Z,26.10
2022-08-03T23:28:05.512Z,26.13
2022-08-03T23:30:36.437Z,25.93
2022-08-03T23:33:09.570Z,25.93
2022-08-03T23:36:22.581Z,25.86
2022-08-03T23:38:31.312Z,26.02
2022-08-03T23:41:03.396Z,25.94
2022-08-03T23:43:46.989Z,25.67
2022-08-03T23:46:10.388Z,25.71
2022-08-03T23:48:40.150Z,25.68
2022-08-03T23:51:31.939Z,25.54
2022-08-03T23:54:22.632Z,25.55
2022-08-03T23:57:10.178Z,25.66
2022-08-03T23:59:42.986Z,25.47
